createdAt,value
2018-06-09T00:00:16.818Z,104.30
2018-06-09T00:01:22.338Z,103.40
2018-06-09T00:02:27.856Z,100.30
2018-06-09T00:03:33.363Z,101.70
2018-06-09T00:04:38.882Z,107.20
2018-06-09T00:05:44.406Z,100.30
2018-06-09T00:06:49.926Z,98.00
2018-06-09T00:07:55.442Z,96.30
2018-06-09T00:09:00.959Z,98.70
2018-06-09T00:10:06.478Z,97.50
2018-06-09T00:11:12.005Z,99.60
2018-06-09T00:12:17.527Z,100.10
2018-06-09T00:13:23.032Z,100.00
2018-06-09T00:14:28.556Z,97.80
2018-06-09T00:15:34.067Z,97.50
2018-06-09T00:16:39.585Z,97.80
2018-06-09T00:17:45.104Z,97.70
2018-06-09T00:18:50.620Z,95.20
2018-06-09T00:19:56.152Z,95.00
2018-06-09T00:21:01.659Z,94.90
2018-06-09T00:22:07.187Z,93.70
2018-06-09T00:23:12.704Z,94.10
2018-06-09T00:24:18.221Z,90.00
2018-06-09T00:25:23.737Z,90.70
2018-06-09T00:26:29.257Z,93.10
2018-06-09T00:27:34.776Z,94.70
2018-06-09T00:28:40.305Z,93.50
2018-06-09T00:29:45.814Z,94.70
2018-06-09T00:30:51.339Z,93.50
2018-06-09T00:31:56.846Z,97.20
2018-06-09T00:33:02.370Z,98.40
2018-06-09T00:34:07.888Z,95.10
2018-06-09T00:35:13.406Z,93.30
2018-06-09T00:36:18.916Z,92.40
2018-06-09T00:37:24.445Z,97.50
2018-06-09T00:38:29.960Z,96.80
2018-06-09T00:39:35.475Z,94.00
2018-06-09T00:40:40.995Z,96.60
2018-06-09T00:41:46.509Z,98.80
2018-06-09T00:42:52.033Z,97.50
2018-06-09T00:43:57.553Z,94.50
2018-06-09T00:45:03.062Z,96.70
2018-06-09T00:46:08.581Z,100.90
2018-06-09T00:47:14.109Z,97.00
2018-06-09T00:48:19.626Z,98.00
2018-06-09T00:49:25.143Z,98.80
2018-06-09T00:50:30.672Z,101.10
2018-06-09T00:51:36.173Z,99.40
2018-06-09T00:52:41.717Z,98.50
2018-06-09T00:53:47.214Z,96.70
2018-06-09T00:54:52.735Z,94.20
2018-06-09T00:55:58.248Z,95.30
2018-06-09T00:57:03.777Z,93.90
2018-06-09T00:58:09.280Z,108.60
2018-06-09T00:59:14.803Z,114.30
2018-06-09T01:00:20.320Z,111.90
2018-06-09T01:01:25.845Z,107.80
2018-06-09T01:02:31.421Z,106.90
2018-06-09T01:03:36.872Z,108.40
2018-06-09T01:04:42.392Z,105.50
2018-06-09T01:05:47.909Z,102.20
2018-06-09T01:06:53.427Z,99.60
2018-06-09T01:07:58.963Z,100.70
2018-06-09T01:09:04.473Z,113.40
2018-06-09T01:10:09.987Z,108.30
2018-06-09T01:11:15.509Z,102.90
2018-06-09T01:12:21.022Z,106.80
2018-06-09T01:13:26.548Z,125.20
2018-06-09T01:14:32.056Z,114.00
2018-06-09T01:15:37.583Z,115.00
2018-06-09T01:16:43.095Z,109.10
2018-06-09T01:17:48.610Z,101.40
2018-06-09T01:18:54.127Z,91.60
2018-06-09T01:19:59.652Z,88.70
2018-06-09T01:21:05.166Z,92.80
2018-06-09T01:22:10.687Z,94.30
2018-06-09T01:23:16.204Z,97.00
2018-06-09T01:24:21.719Z,97.20
2018-06-09T01:25:27.235Z,96.20
2018-06-09T01:26:32.755Z,98.10
2018-06-09T01:27:38.284Z,98.50
2018-06-09T01:28:43.798Z,95.30
2018-06-09T01:29:49.326Z,92.60
2018-06-09T01:30:54.828Z,96.10
2018-06-09T01:32:00.347Z,97.60
2018-06-09T01:33:05.866Z,97.90
2018-06-09T01:34:11.382Z,96.10
2018-06-09T01:35:16.910Z,93.30
2018-06-09T01:36:22.420Z,89.50
2018-06-09T01:37:27.936Z,90.50
2018-06-09T01:38:33.464Z,93.70
2018-06-09T01:39:38.973Z,89.40
2018-06-09T01:40:44.495Z,92.10
2018-06-09T01:41:50.012Z,88.70
2018-06-09T01:42:55.527Z,87.70
2018-06-09T01:44:01.046Z,90.10
2018-06-09T01:45:06.566Z,88.80
2018-06-09T01:46:12.085Z,90.20
2018-06-09T01:47:17.606Z,90.50
2018-06-09T01:48:23.120Z,89.50
2018-06-09T01:49:28.634Z,89.10
2018-06-09T01:50:34.154Z,90.50
2018-06-09T01:51:39.670Z,87.50
2018-06-09T01:52:45.200Z,84.60
2018-06-09T01:53:50.714Z,79.50
2018-06-09T01:54:56.233Z,78.60
2018-06-09T01:56:01.749Z,76.50
2018-06-09T01:57:07.262Z,76.00
2018-06-09T01:58:12.784Z,75.90
2018-06-09T01:59:18.307Z,75.00
2018-06-09T02:00:23.819Z,71.00
2018-06-09T02:01:29.339Z,70.90
2018-06-09T02:02:34.854Z,69.30
2018-06-09T02:03:40.380Z,66.90
2018-06-09T02:04:45.901Z,66.40
2018-06-09T02:05:51.413Z,69.20
2018-06-09T02:06:56.933Z,65.70
2018-06-09T02:08:02.449Z,67.40
2018-06-09T02:09:07.967Z,65.70
2018-06-09T02:10:13.576Z,64.90
2018-06-09T02:11:18.998Z,62.70
2018-06-09T02:12:24.521Z,62.00
2018-06-09T02:13:30.086Z,64.70
2018-06-09T02:14:35.558Z,63.30
2018-06-09T02:15:41.073Z,58.70
2018-06-09T02:16:46.592Z,56.10
2018-06-09T02:17:52.105Z,52.60
2018-06-09T02:18:57.632Z,52.60
2018-06-09T02:20:03.150Z,50.30
2018-06-09T02:21:08.659Z,49.10
2018-06-09T02:22:14.177Z,46.20
2018-06-09T02:23:19.694Z,47.40
2018-06-09T02:24:25.217Z,44.70
2018-06-09T02:25:30.743Z,46.30
2018-06-09T02:26:36.252Z,43.80
2018-06-09T02:27:41.769Z,43.60
2018-06-09T02:28:47.297Z,42.50
2018-06-09T02:29:52.809Z,41.80
2018-06-09T02:30:58.324Z,44.40
2018-06-09T02:32:03.844Z,43.80
2018-06-09T02:33:09.358Z,43.10
2018-06-09T02:34:14.880Z,42.30
2018-06-09T02:35:20.391Z,41.90
2018-06-09T02:36:25.910Z,47.40
2018-06-09T02:37:31.427Z,41.20
2018-06-09T02:38:36.948Z,40.10
2018-06-09T02:39:42.469Z,40.60
2018-06-09T02:40:47.985Z,41.30
2018-06-09T02:41:53.502Z,39.20
2018-06-09T02:42:59.019Z,39.30
2018-06-09T02:44:04.543Z,38.70
2018-06-09T02:45:10.056Z,39.50
2018-06-09T02:46:15.571Z,39.50
2018-06-09T02:47:21.086Z,40.20
2018-06-09T02:48:26.605Z,41.60
2018-06-09T02:49:32.142Z,40.50
2018-06-09T02:50:37.643Z,38.30
2018-06-09T02:51:43.163Z,40.00
2018-06-09T02:52:48.689Z,38.50
2018-06-09T02:53:54.194Z,39.10
2018-06-09T02:54:59.716Z,39.30
2018-06-09T02:56:05.230Z,42.50
2018-06-09T02:57:10.745Z,36.40
2018-06-09T02:58:16.286Z,37.60
2018-06-09T02:59:21.781Z,39.80
2018-06-09T03:00:27.296Z,40.50
2018-06-09T03:01:32.824Z,35.50
2018-06-09T03:02:38.342Z,37.70
2018-06-09T03:03:43.847Z,35.40
2018-06-09T03:04:49.369Z,34.60
2018-06-09T03:05:54.887Z,34.40
2018-06-09T03:07:00.405Z,37.70
2018-06-09T03:08:05.918Z,34.30
2018-06-09T03:09:11.439Z,32.70
2018-06-09T03:10:16.958Z,31.70
2018-06-09T03:11:22.480Z,30.60
2018-06-09T03:12:27.989Z,29.60
2018-06-09T03:13:33.514Z,30.00
2018-06-09T03:14:39.026Z,29.70
2018-06-09T03:15:44.549Z,29.10
2018-06-09T03:16:50.069Z,26.90
2018-06-09T03:17:55.578Z,30.70
2018-06-09T03:19:01.095Z,28.30
2018-06-09T03:20:06.614Z,27.20
2018-06-09T03:21:12.125Z,26.40
2018-06-09T03:22:17.647Z,28.50
2018-06-09T03:23:23.167Z,27.10
2018-06-09T03:24:28.696Z,30.30
2018-06-09T03:25:34.195Z,32.10
2018-06-09T03:26:39.713Z,33.00
2018-06-09T03:27:45.235Z,29.50
2018-06-09T03:28:50.760Z,30.30
2018-06-09T03:29:56.263Z,30.10
2018-06-09T03:31:01.782Z,31.10
2018-06-09T03:32:07.300Z,29.20
2018-06-09T03:33:12.817Z,31.90
2018-06-09T03:34:18.347Z,28.70
2018-06-09T03:35:23.856Z,29.40
2018-06-09T03:36:29.376Z,26.90
2018-06-09T03:37:34.883Z,27.10
2018-06-09T03:38:40.412Z,27.10
2018-06-09T03:39:45.924Z,26.20
2018-06-09T03:40:51.437Z,26.20
2018-06-09T03:41:56.955Z,25.40
2018-06-09T03:43:02.479Z,26.40
2018-06-09T03:44:07.997Z,25.30
2018-06-09T03:45:13.506Z,25.70
2018-06-09T03:46:19.093Z,28.70
2018-06-09T03:47:24.539Z,24.60
2018-06-09T03:48:30.055Z,26.20
2018-06-09T03:49:35.582Z,25.50
2018-06-09T03:50:41.094Z,25.00
2018-06-09T03:51:46.609Z,25.20
2018-06-09T03:52:52.125Z,24.80
2018-06-09T03:53:57.648Z,24.90
2018-06-09T03:55:03.160Z,25.60
2018-06-09T03:56:08.679Z,26.60
2018-06-09T03:57:14.195Z,28.80
2018-06-09T03:58:19.719Z,26.30
2018-06-09T03:59:25.242Z,27.90
2018-06-09T04:00:30.748Z,26.80
2018-06-09T04:01:36.270Z,25.70
2018-06-09T04:02:41.788Z,27.10
2018-06-09T04:03:47.296Z,26.40
2018-06-09T04:04:52.816Z,29.60
2018-06-09T04:05:58.336Z,27.60
2018-06-09T04:07:03.852Z,27.30
2018-06-09T04:08:09.372Z,27.90
2018-06-09T04:09:14.886Z,30.00
2018-06-09T04:10:20.413Z,28.80
2018-06-09T04:11:25.923Z,28.30
2018-06-09T04:12:31.436Z,29.00
2018-06-09T04:13:36.956Z,28.20
2018-06-09T04:14:42.476Z,31.20
2018-06-09T04:15:47.996Z,27.70
2018-06-09T04:16:53.506Z,27.40
2018-06-09T04:17:59.022Z,29.70
2018-06-09T04:19:04.543Z,29.30
2018-06-09T04:20:10.055Z,27.80
2018-06-09T04:21:15.580Z,26.80
2018-06-09T04:22:21.090Z,28.70
2018-06-09T04:23:26.607Z,29.40
2018-06-09T04:24:32.128Z,27.00
2018-06-09T04:25:37.656Z,27.40
2018-06-09T04:26:43.162Z,27.10
2018-06-09T04:27:48.698Z,25.60
2018-06-09T04:28:54.201Z,24.70
2018-06-09T04:29:59.713Z,25.60
2018-06-09T04:31:05.240Z,26.60
2018-06-09T04:32:10.748Z,24.50
2018-06-09T04:33:16.267Z,24.90
2018-06-09T04:34:21.787Z,24.90
2018-06-09T04:35:27.304Z,24.50
2018-06-09T04:36:32.816Z,24.60
2018-06-09T04:37:38.346Z,24.50
2018-06-09T04:38:43.854Z,26.60
2018-06-09T04:39:49.422Z,24.70
2018-06-09T04:40:54.888Z,25.10
2018-06-09T04:42:00.408Z,24.40
2018-06-09T04:43:05.939Z,25.00
2018-06-09T04:44:11.446Z,25.50
2018-06-09T04:45:16.959Z,24.20
2018-06-09T04:46:22.504Z,24.40
2018-06-09T04:47:27.991Z,24.40
2018-06-09T04:48:33.521Z,26.40
2018-06-09T04:49:39.030Z,25.80
2018-06-09T04:50:44.543Z,26.20
2018-06-09T04:51:50.063Z,23.50
2018-06-09T04:52:55.580Z,24.70
2018-06-09T04:54:01.097Z,24.40
2018-06-09T04:55:06.618Z,25.30
2018-06-09T04:56:12.136Z,24.60
2018-06-09T04:57:17.649Z,24.00
2018-06-09T04:58:23.217Z,24.80
2018-06-09T04:59:28.682Z,25.00
2018-06-09T05:00:34.204Z,24.50
2018-06-09T05:01:39.717Z,26.30
2018-06-09T05:02:45.238Z,24.70
2018-06-09T05:03:50.763Z,24.20
2018-06-09T05:04:56.276Z,25.70
2018-06-09T05:06:01.788Z,23.00
2018-06-09T05:07:07.310Z,26.40
2018-06-09T05:08:12.824Z,23.60
2018-06-09T05:09:18.342Z,24.30
2018-06-09T05:10:23.859Z,24.50
2018-06-09T05:11:29.375Z,25.10
2018-06-09T05:12:34.897Z,22.60
2018-06-09T05:13:40.415Z,27.70
2018-06-09T05:14:45.928Z,21.30
2018-06-09T05:15:51.447Z,22.80
2018-06-09T05:16:56.968Z,23.30
2018-06-09T05:18:02.483Z,24.30
2018-06-09T05:19:08.015Z,23.30
2018-06-09T05:20:13.521Z,23.40
2018-06-09T05:21:19.034Z,24.60
2018-06-09T05:22:24.557Z,26.30
2018-06-09T05:23:30.066Z,23.70
2018-06-09T05:24:35.583Z,24.50
2018-06-09T05:25:41.109Z,23.90
2018-06-09T05:26:46.620Z,25.00
2018-06-09T05:27:52.147Z,28.20
2018-06-09T05:28:57.653Z,25.40
2018-06-09T05:30:03.173Z,27.50
2018-06-09T05:31:08.692Z,24.90
2018-06-09T05:32:14.211Z,27.20
2018-06-09T05:33:19.723Z,23.50
2018-06-09T05:34:25.245Z,22.40
2018-06-09T05:35:30.767Z,23.50
2018-06-09T05:36:36.284Z,23.20
2018-06-09T05:37:41.803Z,23.80
2018-06-09T05:38:47.309Z,22.60
2018-06-09T05:39:52.829Z,22.50
2018-06-09T05:40:58.353Z,24.10
2018-06-09T05:42:03.872Z,23.00
2018-06-09T05:43:09.383Z,26.50
2018-06-09T05:44:14.903Z,22.50
2018-06-09T05:45:20.417Z,22.10
2018-06-09T05:46:25.936Z,26.10
2018-06-09T05:47:31.457Z,27.30
2018-06-09T05:48:36.978Z,22.50
2018-06-09T05:49:42.495Z,22.20
2018-06-09T05:50:48.006Z,23.00
2018-06-09T05:51:53.525Z,22.20
2018-06-09T05:52:59.056Z,21.80
2018-06-09T05:54:04.562Z,23.40
2018-06-09T05:55:10.076Z,23.70
2018-06-09T05:56:15.596Z,24.70
2018-06-09T05:57:21.114Z,23.80
2018-06-09T05:58:26.627Z,21.10
2018-06-09T05:59:32.151Z,21.10
2018-06-09T06:00:37.670Z,20.60
2018-06-09T06:01:43.184Z,22.30
2018-06-09T06:02:48.709Z,20.30
2018-06-09T06:03:54.263Z,23.40
2018-06-09T06:04:59.735Z,22.40
2018-06-09T06:06:05.258Z,22.20
2018-06-09T06:07:10.775Z,22.60
2018-06-09T06:08:16.289Z,24.30
2018-06-09T06:09:21.805Z,22.60
2018-06-09T06:10:27.322Z,20.60
2018-06-09T06:11:32.839Z,21.80
2018-06-09T06:12:38.368Z,22.60
2018-06-09T06:13:43.874Z,20.90
2018-06-09T06:14:49.401Z,21.30
2018-06-09T06:15:54.913Z,23.30
2018-06-09T06:17:00.436Z,22.10
2018-06-09T06:18:05.953Z,20.90
2018-06-09T06:19:11.472Z,20.90
2018-06-09T06:20:16.994Z,20.20
2018-06-09T06:21:22.505Z,21.40
2018-06-09T06:22:28.025Z,21.00
2018-06-09T06:23:33.542Z,24.40
2018-06-09T06:24:39.056Z,23.00
2018-06-09T06:25:44.572Z,24.90
2018-06-09T06:26:50.104Z,24.70
2018-06-09T06:27:55.607Z,21.00
2018-06-09T06:29:01.125Z,22.00
2018-06-09T06:30:06.655Z,23.80
2018-06-09T06:31:12.170Z,26.30
2018-06-09T06:32:17.685Z,22.90
2018-06-09T06:33:23.198Z,20.70
2018-06-09T06:34:28.721Z,20.80
2018-06-09T06:35:34.239Z,21.70
2018-06-09T06:36:39.754Z,20.60
2018-06-09T06:37:45.275Z,23.40
2018-06-09T06:38:50.790Z,21.40
2018-06-09T06:39:56.310Z,23.30
2018-06-09T06:41:01.826Z,21.90
2018-06-09T06:42:07.352Z,22.10
2018-06-09T06:43:12.863Z,23.40
2018-06-09T06:44:18.387Z,21.80
2018-06-09T06:45:23.903Z,22.30
2018-06-09T06:46:29.416Z,21.60
2018-06-09T06:47:34.934Z,23.30
2018-06-09T06:48:40.467Z,23.60
2018-06-09T06:49:45.972Z,26.60
2018-06-09T06:50:51.495Z,39.40
2018-06-09T06:51:57.008Z,24.00
2018-06-09T06:53:02.522Z,22.30
2018-06-09T06:54:08.089Z,21.10
2018-06-09T06:55:13.557Z,22.40
2018-06-09T06:56:19.083Z,26.40
2018-06-09T06:57:24.614Z,21.80
2018-06-09T06:58:30.111Z,22.20
2018-06-09T06:59:35.630Z,21.60
2018-06-09T07:00:41.150Z,23.90
2018-06-09T07:01:46.670Z,22.40
2018-06-09T07:02:52.196Z,21.80
2018-06-09T07:03:57.703Z,21.80
2018-06-09T07:05:03.225Z,22.10
2018-06-09T07:06:08.755Z,23.10
2018-06-09T07:07:14.267Z,21.90
2018-06-09T07:08:19.780Z,25.00
2018-06-09T07:09:25.301Z,23.90
2018-06-09T07:10:30.817Z,24.90
2018-06-09T07:11:36.345Z,21.40
2018-06-09T07:12:41.858Z,20.70
2018-06-09T07:13:47.365Z,21.40
2018-06-09T07:14:52.886Z,21.40
2018-06-09T07:15:58.431Z,22.80
2018-06-09T07:17:03.924Z,22.00
2018-06-09T07:18:09.444Z,22.20
2018-06-09T07:19:14.964Z,22.50
2018-06-09T07:20:20.476Z,23.90
2018-06-09T07:21:26.017Z,23.70
2018-06-09T07:22:31.521Z,21.60
2018-06-09T07:23:37.041Z,22.20
2018-06-09T07:24:42.557Z,22.90
2018-06-09T07:25:48.069Z,23.20
2018-06-09T07:26:53.598Z,22.70
2018-06-09T07:27:59.111Z,22.50
2018-06-09T07:29:04.627Z,24.80
2018-06-09T07:30:10.146Z,22.00
2018-06-09T07:31:15.665Z,22.40
2018-06-09T07:32:21.183Z,23.90
2018-06-09T07:33:26.703Z,22.00
2018-06-09T07:34:32.224Z,21.90
2018-06-09T07:35:37.741Z,22.80
2018-06-09T07:36:43.257Z,24.90
2018-06-09T07:37:48.787Z,23.80
2018-06-09T07:38:54.304Z,25.00
2018-06-09T07:39:59.812Z,22.10
2018-06-09T07:41:05.333Z,24.50
2018-06-09T07:42:10.852Z,21.50
2018-06-09T07:43:16.374Z,22.60
2018-06-09T07:44:21.888Z,22.90
2018-06-09T07:45:27.409Z,23.20
2018-06-09T07:46:32.933Z,22.50
2018-06-09T07:47:38.444Z,23.90
2018-06-09T07:48:43.966Z,24.80
2018-06-09T07:49:49.487Z,24.80
2018-06-09T07:50:55.010Z,22.30
2018-06-09T07:52:00.537Z,23.50
2018-06-09T07:53:06.038Z,23.10
2018-06-09T07:54:11.586Z,21.30
2018-06-09T07:55:17.080Z,22.50
2018-06-09T07:56:22.597Z,23.00
2018-06-09T07:57:28.123Z,22.60
2018-06-09T07:58:33.643Z,24.50
2018-06-09T07:59:39.197Z,22.70
2018-06-09T08:00:44.674Z,21.80
2018-06-09T08:01:50.191Z,21.70
2018-06-09T08:02:55.719Z,22.00
2018-06-09T08:04:01.230Z,21.20
2018-06-09T08:05:06.755Z,22.10
2018-06-09T08:06:12.269Z,25.00
2018-06-09T08:07:17.793Z,22.40
2018-06-09T08:08:23.313Z,21.40
2018-06-09T08:09:28.837Z,21.50
2018-06-09T08:10:34.348Z,21.60
2018-06-09T08:11:39.866Z,22.00
2018-06-09T08:12:45.384Z,21.50
2018-06-09T08:13:50.935Z,21.20
2018-06-09T08:14:56.434Z,21.20
2018-06-09T08:16:01.943Z,19.50
2018-06-09T08:17:07.462Z,21.10
2018-06-09T08:18:12.984Z,20.70
2018-06-09T08:19:18.504Z,20.60
2018-06-09T08:20:24.023Z,20.30
2018-06-09T08:21:29.541Z,20.70
2018-06-09T08:22:35.068Z,21.30
2018-06-09T08:23:40.584Z,21.40
2018-06-09T08:24:46.112Z,20.40
2018-06-09T08:25:51.625Z,21.70
2018-06-09T08:26:57.145Z,21.00
2018-06-09T08:28:02.664Z,20.40
2018-06-09T08:29:08.212Z,21.20
2018-06-09T08:30:13.705Z,19.90
2018-06-09T08:31:19.236Z,19.90
2018-06-09T08:32:24.741Z,23.00
2018-06-09T08:33:30.257Z,22.60
2018-06-09T08:34:35.779Z,22.90
2018-06-09T08:35:41.296Z,21.20
2018-06-09T08:36:46.817Z,20.20
2018-06-09T08:37:52.348Z,20.60
2018-06-09T08:38:57.867Z,20.40
2018-06-09T08:40:03.380Z,23.30
2018-06-09T08:41:08.894Z,20.20
2018-06-09T08:42:14.414Z,19.40
2018-06-09T08:43:19.937Z,20.60
2018-06-09T08:44:25.454Z,19.20
2018-06-09T08:45:30.971Z,18.40
2018-06-09T08:46:36.497Z,21.30
2018-06-09T08:47:42.015Z,18.90
2018-06-09T08:48:47.535Z,18.90
2018-06-09T08:49:53.058Z,19.10
2018-06-09T08:50:58.571Z,19.00
2018-06-09T08:52:04.091Z,20.30
2018-06-09T08:53:09.617Z,21.40
2018-06-09T08:54:15.141Z,20.00
2018-06-09T08:55:20.658Z,19.30
2018-06-09T08:56:26.185Z,19.00
2018-06-09T08:57:31.706Z,21.10
2018-06-09T08:58:37.210Z,19.30
2018-06-09T08:59:42.779Z,19.50
2018-06-09T09:00:48.269Z,19.50
2018-06-09T09:01:53.771Z,19.30
2018-06-09T09:02:59.308Z,19.30
2018-06-09T09:04:04.812Z,19.90
2018-06-09T09:05:10.344Z,19.00
2018-06-09T09:06:15.856Z,19.90
2018-06-09T09:07:21.372Z,18.80
2018-06-09T09:08:26.898Z,20.80
2018-06-09T09:09:32.412Z,19.60
2018-06-09T09:10:37.937Z,20.90
2018-06-09T09:11:43.454Z,19.60
2018-06-09T09:12:48.970Z,20.10
2018-06-09T09:13:54.504Z,20.70
2018-06-09T09:15:00.027Z,20.70
2018-06-09T09:16:05.535Z,20.90
2018-06-09T09:17:11.049Z,21.10
2018-06-09T09:18:16.587Z,20.10
2018-06-09T09:19:22.101Z,22.70
2018-06-09T09:20:27.614Z,21.60
2018-06-09T09:21:33.134Z,20.80
2018-06-09T09:22:38.652Z,21.50
2018-06-09T09:23:44.170Z,20.60
2018-06-09T09:24:49.689Z,20.30
2018-06-09T09:25:55.288Z,20.90
2018-06-09T09:27:00.736Z,20.20
2018-06-09T09:28:06.254Z,20.50
2018-06-09T09:29:11.771Z,20.00
2018-06-09T09:30:17.291Z,21.10
2018-06-09T09:31:22.812Z,19.70
2018-06-09T09:32:28.341Z,19.80
2018-06-09T09:33:33.853Z,18.90
2018-06-09T09:34:39.393Z,20.00
2018-06-09T09:35:44.946Z,21.30
2018-06-09T09:36:50.415Z,19.10
2018-06-09T09:37:55.943Z,20.40
2018-06-09T09:39:01.456Z,18.20
2018-06-09T09:40:06.986Z,20.70
2018-06-09T09:41:12.690Z,20.00
2018-06-09T09:42:18.024Z,19.40
2018-06-09T09:43:23.539Z,19.60
2018-06-09T09:44:29.055Z,20.40
2018-06-09T09:45:34.589Z,20.80
2018-06-09T09:46:40.101Z,19.90
2018-06-09T09:47:45.625Z,19.10
2018-06-09T09:48:51.347Z,20.00
2018-06-09T09:49:56.666Z,19.10
2018-06-09T09:51:02.187Z,20.80
2018-06-09T09:52:07.709Z,19.80
2018-06-09T09:53:13.222Z,19.60
2018-06-09T09:54:18.747Z,18.60
2018-06-09T09:55:24.277Z,19.60
2018-06-09T09:56:29.791Z,18.60
2018-06-09T09:57:35.356Z,18.30
2018-06-09T09:58:40.829Z,18.80
2018-06-09T09:59:46.351Z,19.30
2018-06-09T10:00:51.865Z,18.90
2018-06-09T10:01:57.396Z,19.10
2018-06-09T10:03:02.906Z,18.70
2018-06-09T10:04:08.442Z,21.00
2018-06-09T10:05:13.966Z,18.80
2018-06-09T10:06:19.474Z,18.50
2018-06-09T10:07:24.995Z,19.40
2018-06-09T10:08:30.517Z,19.20
2018-06-09T10:09:36.032Z,18.30
2018-06-09T10:10:41.579Z,19.60
2018-06-09T10:11:47.080Z,18.60
2018-06-09T10:12:52.593Z,19.30
2018-06-09T10:13:58.130Z,17.20
2018-06-09T10:15:03.643Z,18.20
2018-06-09T10:16:09.166Z,27.10
2018-06-09T10:17:14.676Z,35.10
2018-06-09T10:18:20.204Z,19.40
2018-06-09T10:19:25.724Z,20.10
2018-06-09T10:20:31.247Z,18.00
2018-06-09T10:21:36.859Z,20.00
2018-06-09T10:22:42.402Z,18.90
2018-06-09T10:23:47.813Z,17.70
2018-06-09T10:24:53.332Z,16.80
2018-06-09T10:25:58.851Z,17.80
2018-06-09T10:27:04.367Z,17.20
2018-06-09T10:28:09.899Z,16.90
2018-06-09T10:29:15.414Z,17.80
2018-06-09T10:30:20.934Z,18.10
2018-06-09T10:31:26.479Z,18.60
2018-06-09T10:32:31.991Z,17.60
2018-06-09T10:33:37.495Z,18.10
2018-06-09T10:34:43.016Z,16.80
2018-06-09T10:35:48.537Z,18.30
2018-06-09T10:36:54.056Z,17.00
2018-06-09T10:37:59.579Z,17.10
2018-06-09T10:39:05.106Z,17.00
2018-06-09T10:40:10.634Z,17.00
2018-06-09T10:41:16.137Z,17.30
2018-06-09T10:42:21.665Z,19.20
2018-06-09T10:43:27.191Z,18.20
2018-06-09T10:44:32.706Z,17.90
2018-06-09T10:45:38.225Z,18.90
2018-06-09T10:46:43.747Z,18.50
2018-06-09T10:47:49.266Z,19.40
2018-06-09T10:48:54.789Z,22.60
2018-06-09T10:50:00.311Z,18.90
2018-06-09T10:51:05.839Z,18.10
2018-06-09T10:52:11.357Z,17.20
2018-06-09T10:53:16.876Z,18.10
2018-06-09T10:54:22.399Z,17.60
2018-06-09T10:55:27.925Z,17.50
2018-06-09T10:56:33.445Z,18.40
2018-06-09T10:57:38.967Z,19.50
2018-06-09T10:58:44.492Z,19.60
2018-06-09T10:59:50.007Z,19.40
2018-06-09T11:00:55.530Z,19.60
2018-06-09T11:02:01.058Z,19.10
2018-06-09T11:03:06.576Z,20.30
2018-06-09T11:04:12.089Z,20.10
2018-06-09T11:05:17.618Z,19.10
2018-06-09T11:06:23.139Z,19.60
2018-06-09T11:07:28.664Z,22.70
2018-06-09T11:08:34.175Z,19.00
2018-06-09T11:09:39.714Z,20.40
2018-06-09T11:10:45.221Z,20.20
2018-06-09T11:11:50.743Z,21.30
2018-06-09T11:12:56.273Z,19.30
2018-06-09T11:14:01.797Z,19.00
2018-06-09T11:15:07.305Z,20.00
2018-06-09T11:16:12.825Z,17.30
2018-06-09T11:17:18.349Z,19.90
2018-06-09T11:18:23.868Z,22.60
2018-06-09T11:19:29.405Z,19.40
2018-06-09T11:20:34.916Z,20.10
2018-06-09T11:21:40.440Z,20.40
2018-06-09T11:22:45.976Z,19.80
2018-06-09T11:23:51.483Z,21.40
2018-06-09T11:24:57.013Z,19.90
2018-06-09T11:26:02.525Z,20.80
2018-06-09T11:27:08.054Z,19.70
2018-06-09T11:28:13.568Z,20.60
2018-06-09T11:29:19.088Z,20.40
2018-06-09T11:30:24.609Z,19.00
2018-06-09T11:31:30.135Z,19.40
2018-06-09T11:32:35.670Z,21.70
2018-06-09T11:33:41.184Z,24.60
2018-06-09T11:34:46.705Z,19.30
2018-06-09T11:35:52.225Z,19.50
2018-06-09T11:36:57.757Z,19.50
2018-06-09T11:38:03.266Z,18.60
2018-06-09T11:39:08.788Z,23.60
2018-06-09T11:40:14.316Z,19.50
2018-06-09T11:41:19.835Z,20.80
2018-06-09T11:42:25.354Z,22.60
2018-06-09T11:43:30.876Z,21.50
2018-06-09T11:44:36.401Z,20.60
2018-06-09T11:45:41.928Z,34.70
2018-06-09T11:46:47.447Z,21.00
2018-06-09T11:47:52.977Z,20.50
2018-06-09T11:48:58.498Z,19.20
2018-06-09T11:50:04.049Z,19.70
2018-06-09T11:51:09.535Z,21.10
2018-06-09T11:52:15.074Z,19.10
2018-06-09T11:53:20.577Z,21.10
2018-06-09T11:54:26.094Z,19.60
2018-06-09T11:55:31.633Z,18.50
2018-06-09T11:56:37.154Z,20.20
2018-06-09T11:57:42.680Z,18.80
2018-06-09T11:58:48.194Z,21.20
2018-06-09T11:59:53.717Z,19.20
2018-06-09T12:00:59.236Z,20.00
2018-06-09T12:02:04.753Z,18.90
2018-06-09T12:03:10.275Z,19.20
2018-06-09T12:04:15.806Z,20.50
2018-06-09T12:05:21.326Z,19.60
2018-06-09T12:06:26.851Z,22.60
2018-06-09T12:07:32.375Z,20.70
2018-06-09T12:08:37.894Z,20.50
2018-06-09T12:09:43.412Z,20.60
2018-06-09T12:10:48.942Z,20.10
2018-06-09T12:11:54.461Z,20.40
2018-06-09T12:12:59.990Z,21.50
2018-06-09T12:14:05.520Z,19.60
2018-06-09T12:15:11.039Z,19.40
2018-06-09T12:16:16.550Z,20.10
2018-06-09T12:17:22.121Z,19.30
2018-06-09T12:18:27.591Z,18.30
2018-06-09T12:19:33.111Z,18.90
2018-06-09T12:20:38.635Z,19.40
2018-06-09T12:21:44.175Z,19.10
2018-06-09T12:22:49.713Z,18.70
2018-06-09T12:23:55.201Z,20.30
2018-06-09T12:25:00.749Z,19.80
2018-06-09T12:26:06.252Z,19.10
2018-06-09T12:27:11.773Z,19.10
2018-06-09T12:28:17.304Z,19.20
2018-06-09T12:29:22.816Z,19.60
2018-06-09T12:30:28.354Z,21.50
2018-06-09T12:31:33.866Z,21.20
2018-06-09T12:32:39.394Z,20.30
2018-06-09T12:33:44.909Z,19.70
2018-06-09T12:34:50.427Z,20.60
2018-06-09T12:35:55.958Z,21.10
2018-06-09T12:37:01.478Z,18.80
2018-06-09T12:38:07.000Z,19.90
2018-06-09T12:39:12.536Z,20.10
2018-06-09T12:40:18.056Z,18.50
2018-06-09T12:41:23.583Z,19.50
2018-06-09T12:42:29.117Z,18.70
2018-06-09T12:43:34.623Z,19.10
2018-06-09T12:44:40.133Z,18.90
2018-06-09T12:45:45.658Z,18.20
2018-06-09T12:46:51.181Z,19.20
2018-06-09T12:47:56.704Z,18.40
2018-06-09T12:49:02.243Z,18.90
2018-06-09T12:50:07.760Z,19.50
2018-06-09T12:51:13.277Z,19.90
2018-06-09T12:52:18.796Z,17.70
2018-06-09T12:53:24.329Z,18.70
2018-06-09T12:54:29.840Z,19.80
2018-06-09T12:55:35.364Z,17.40
2018-06-09T12:56:40.896Z,18.30
2018-06-09T12:57:46.416Z,18.80
2018-06-09T12:58:51.951Z,19.30
2018-06-09T12:59:57.457Z,18.70
2018-06-09T13:01:02.979Z,18.20
2018-06-09T13:02:08.674Z,17.70
2018-06-09T13:03:14.024Z,16.60
2018-06-09T13:04:19.556Z,16.80
2018-06-09T13:05:25.071Z,16.30
2018-06-09T13:06:30.619Z,17.10
2018-06-09T13:07:36.126Z,18.70
2018-06-09T13:08:41.640Z,16.60
2018-06-09T13:09:47.218Z,17.50
2018-06-09T13:10:52.684Z,18.00
2018-06-09T13:11:58.208Z,18.00
2018-06-09T13:13:03.746Z,16.30
2018-06-09T13:14:09.296Z,16.90
2018-06-09T13:15:14.779Z,18.10
2018-06-09T13:16:20.305Z,15.10
2018-06-09T13:17:25.825Z,15.70
2018-06-09T13:18:31.346Z,17.10
2018-06-09T13:19:36.956Z,17.70
2018-06-09T13:20:42.397Z,17.80
2018-06-09T13:21:47.922Z,18.60
2018-06-09T13:22:53.444Z,17.40
2018-06-09T13:23:58.965Z,19.50
2018-06-09T13:25:04.492Z,17.90
2018-06-09T13:26:10.025Z,17.60
2018-06-09T13:27:15.533Z,18.60
2018-06-09T13:28:21.054Z,17.90
2018-06-09T13:29:26.581Z,16.70
2018-06-09T13:30:32.109Z,16.60
2018-06-09T13:31:37.624Z,15.80
2018-06-09T13:32:43.151Z,16.60
2018-06-09T13:33:48.671Z,16.60
2018-06-09T13:34:54.209Z,15.80
2018-06-09T13:35:59.902Z,15.20
2018-06-09T13:37:05.251Z,13.80
2018-06-09T13:38:10.764Z,14.30
2018-06-09T13:39:16.289Z,15.00
2018-06-09T13:40:21.822Z,15.60
2018-06-09T13:41:27.368Z,15.70
2018-06-09T13:42:32.856Z,16.30
2018-06-09T13:43:38.394Z,16.60
2018-06-09T13:44:43.908Z,16.00
2018-06-09T13:45:49.431Z,16.50
2018-06-09T13:46:55.024Z,16.50
2018-06-09T13:48:00.470Z,15.40
2018-06-09T13:49:06.002Z,16.50
2018-06-09T13:50:11.526Z,17.20
2018-06-09T13:51:17.044Z,17.40
2018-06-09T13:52:22.565Z,16.80
2018-06-09T13:53:28.091Z,16.60
2018-06-09T13:54:33.674Z,15.70
2018-06-09T13:55:39.164Z,16.50
2018-06-09T13:56:44.655Z,15.70
2018-06-09T13:57:50.181Z,15.50
2018-06-09T13:58:55.710Z,15.40
2018-06-09T14:00:01.223Z,16.60
2018-06-09T14:01:06.755Z,16.10
2018-06-09T14:02:12.273Z,14.30